sensor_id;sensor_type;location;lat;lon;timestamp;pressure;altitude;pressure_sealevel;temperature;humidity
69955;BME280;57279;55.912;37.490;2022-11-20T00:00:53;99348.41;;;-2.07;76.65
69955;BME280;57279;55.912;37.490;2022-11-20T00:03:19;99354.81;;;-2.02;77.19
69955;BME280;57279;55.912;37.490;2022-11-20T00:05:45;99347.25;;;-1.90;76.96
69955;BME280;57279;55.912;37.490;2022-11-20T00:08:11;99349.59;;;-1.95;76.45
69955;BME280;57279;55.912;37.490;2022-11-20T00:10:37;99350.25;;;-1.93;76.24
69955;BME280;57279;55.912;37.490;2022-11-20T00:13:03;99353.19;;;-1.88;76.28
69955;BME280;57279;55.912;37.490;2022-11-20T00:15:29;99357.03;;;-1.90;76.11
69955;BME280;57279;55.912;37.490;2022-11-20T00:17:55;99356.91;;;-1.97;75.92
69955;BME280;57279;55.912;37.490;2022-11-20T00:20:21;99354.13;;;-2.04;76.12
69955;BME280;57279;55.912;37.490;2022-11-20T00:22:46;99356.78;;;-2.04;76.34
69955;BME280;57279;55.912;37.490;2022-11-20T00:25:12;99352.31;;;-2.03;76.53
69955;BME280;57279;55.912;37.490;2022-11-20T00:27:38;99356.72;;;-1.95;76.33
69955;BME280;57279;55.912;37.490;2022-11-20T00:30:05;99355.91;;;-1.96;75.90
69955;BME280;57279;55.912;37.490;2022-11-20T00:32:30;99351.47;;;-2.04;76.14
69955;BME280;57279;55.912;37.490;2022-11-20T00:34:56;99352.16;;;-2.02;75.84
69955;BME280;57279;55.912;37.490;2022-11-20T00:37:22;99356.25;;;-1.99;76.19
69955;BME280;57279;55.912;37.490;2022-11-20T00:39:47;99355.16;;;-2.05;75.85
69955;BME280;57279;55.912;37.490;2022-11-20T00:42:13;99353.69;;;-2.07;75.89
69955;BME280;57279;55.912;37.490;2022-11-20T00:44:39;99345.19;;;-2.03;76.01
69955;BME280;57279;55.912;37.490;2022-11-20T00:47:05;99350.84;;;-2.06;75.84
69955;BME280;57279;55.912;37.490;2022-11-20T00:49:30;99349.03;;;-2.05;76.15
69955;BME280;57279;55.912;37.490;2022-11-20T00:51:56;99360.00;;;-1.93;76.05
69955;BME280;57279;55.912;37.490;2022-11-20T00:54:21;99353.47;;;-2.06;76.00
69955;BME280;57279;55.912;37.490;2022-11-20T00:56:47;99354.84;;;-2.10;75.76
69955;BME280;57279;55.912;37.490;2022-11-20T00:59:13;99354.97;;;-2.03;76.13
69955;BME280;57279;55.912;37.490;2022-11-20T01:01:39;99355.63;;;-2.01;75.80
69955;BME280;57279;55.912;37.490;2022-11-20T01:04:05;99351.94;;;-2.00;75.78
69955;BME280;57279;55.912;37.490;2022-11-20T01:06:35;99354.97;;;-2.03;75.33
69955;BME280;57279;55.912;37.490;2022-11-20T01:09:06;99350.31;;;-2.01;75.57
69955;BME280;57279;55.912;37.490;2022-11-20T01:11:36;99346.75;;;-2.08;75.48
69955;BME280;57279;55.912;37.490;2022-11-20T01:14:04;99344.25;;;-2.10;75.42
69955;BME280;57279;55.912;37.490;2022-11-20T01:16:33;99349.28;;;-2.15;74.98
69955;BME280;57279;55.912;37.490;2022-11-20T01:19:00;99347.16;;;-2.20;75.19
69955;BME280;57279;55.912;37.490;2022-11-20T01:21:29;99343.88;;;-2.22;75.32
69955;BME280;57279;55.912;37.490;2022-11-20T01:23:56;99343.63;;;-2.35;75.22
69955;BME280;57279;55.912;37.490;2022-11-20T01:26:24;99352.13;;;-2.40;75.11
69955;BME280;57279;55.912;37.490;2022-11-20T01:28:51;99346.19;;;-2.42;75.64
69955;BME280;57279;55.912;37.490;2022-11-20T01:31:22;99351.56;;;-2.35;75.40
69955;BME280;57279;55.912;37.490;2022-11-20T01:33:50;99350.84;;;-2.29;75.21
69955;BME280;57279;55.912;37.490;2022-11-20T01:36:16;99353.00;;;-2.24;74.84
69955;BME280;57279;55.912;37.490;2022-11-20T01:38:42;99356.78;;;-2.27;74.79
69955;BME280;57279;55.912;37.490;2022-11-20T01:41:10;99360.22;;;-2.18;74.49
69955;BME280;57279;55.912;37.490;2022-11-20T01:43:56;99370.06;;;-2.12;74.77
69955;BME280;57279;55.912;37.490;2022-11-20T01:46:22;99358.75;;;-2.21;74.09
69955;BME280;57279;55.912;37.490;2022-11-20T01:51:23;99361.91;;;-2.25;74.51
69955;BME280;57279;55.912;37.490;2022-11-20T01:53:53;99368.16;;;-2.18;74.38
69955;BME280;57279;55.912;37.490;2022-11-20T01:56:19;99372.00;;;-2.29;74.04
69955;BME280;57279;55.912;37.490;2022-11-20T01:58:50;99370.31;;;-2.22;75.10
69955;BME280;57279;55.912;37.490;2022-11-20T02:01:17;99376.66;;;-2.31;74.41
69955;BME280;57279;55.912;37.490;2022-11-20T02:03:43;99379.28;;;-2.23;74.48
69955;BME280;57279;55.912;37.490;2022-11-20T02:06:33;99378.09;;;-2.20;74.21
69955;BME280;57279;55.912;37.490;2022-11-20T02:09:00;99383.72;;;-2.23;74.67
69955;BME280;57279;55.912;37.490;2022-11-20T02:11:26;99385.25;;;-2.29;74.13
69955;BME280;57279;55.912;37.490;2022-11-20T02:13:51;99385.31;;;-2.14;74.72
69955;BME280;57279;55.912;37.490;2022-11-20T02:16:29;99393.66;;;-2.25;74.22
69955;BME280;57279;55.912;37.490;2022-11-20T02:18:57;99395.13;;;-2.23;74.34
69955;BME280;57279;55.912;37.490;2022-11-20T02:26:26;99390.44;;;-2.12;74.28
69955;BME280;57279;55.912;37.490;2022-11-20T02:28:53;99394.66;;;-2.03;73.78
69955;BME280;57279;55.912;37.490;2022-11-20T02:31:19;99395.81;;;-2.06;73.70
69955;BME280;57279;55.912;37.490;2022-11-20T02:33:45;99401.19;;;-2.14;74.04
69955;BME280;57279;55.912;37.490;2022-11-20T02:36:14;99406.63;;;-2.16;73.68
69955;BME280;57279;55.912;37.490;2022-11-20T02:38:41;99408.81;;;-2.19;73.99
69955;BME280;57279;55.912;37.490;2022-11-20T02:41:07;99404.00;;;-2.16;73.89
69955;BME280;57279;55.912;37.490;2022-11-20T02:43:33;99405.34;;;-2.20;74.30
69955;BME280;57279;55.912;37.490;2022-11-20T02:45:58;99409.94;;;-2.13;74.04
69955;BME280;57279;55.912;37.490;2022-11-20T02:48:24;99408.22;;;-2.06;74.20
69955;BME280;57279;55.912;37.490;2022-11-20T02:50:49;99416.31;;;-2.00;73.77
69955;BME280;57279;55.912;37.490;2022-11-20T02:53:15;99409.53;;;-2.02;73.45
69955;BME280;57279;55.912;37.490;2022-11-20T02:55:41;99417.19;;;-2.07;73.39
69955;BME280;57279;55.912;37.490;2022-11-20T02:58:06;99410.56;;;-2.11;73.33
69955;BME280;57279;55.912;37.490;2022-11-20T03:00:32;99416.56;;;-2.18;73.33
69955;BME280;57279;55.912;37.490;2022-11-20T03:02:58;99415.63;;;-2.25;73.85
69955;BME280;57279;55.912;37.490;2022-11-20T03:05:27;99421.06;;;-2.18;73.70
69955;BME280;57279;55.912;37.490;2022-11-20T03:07:53;99417.94;;;-2.22;73.70
69955;BME280;57279;55.912;37.490;2022-11-20T03:10:18;99412.63;;;-2.22;73.34
69955;BME280;57279;55.912;37.490;2022-11-20T03:12:44;99416.41;;;-2.16;73.88
69955;BME280;57279;55.912;37.490;2022-11-20T03:15:10;99418.97;;;-2.08;73.74
69955;BME280;57279;55.912;37.490;2022-11-20T03:17:36;99413.34;;;-2.05;72.92
69955;BME280;57279;55.912;37.490;2022-11-20T03:20:02;99415.94;;;-2.20;73.32
69955;BME280;57279;55.912;37.490;2022-11-20T03:22:29;99412.81;;;-2.23;73.50
69955;BME280;57279;55.912;37.490;2022-11-20T03:24:55;99415.75;;;-2.18;73.25
69955;BME280;57279;55.912;37.490;2022-11-20T03:27:22;99412.88;;;-2.08;73.55
69955;BME280;57279;55.912;37.490;2022-11-20T03:29:47;99412.88;;;-2.08;72.82
69955;BME280;57279;55.912;37.490;2022-11-20T03:32:16;99412.53;;;-2.05;73.00
69955;BME280;57279;55.912;37.490;2022-11-20T03:34:42;99423.13;;;-2.05;72.92
69955;BME280;57279;55.912;37.490;2022-11-20T03:37:08;99425.31;;;-2.17;72.79
69955;BME280;57279;55.912;37.490;2022-11-20T03:39:33;99424.41;;;-2.24;73.06
69955;BME280;57279;55.912;37.490;2022-11-20T03:41:59;99421.88;;;-2.18;73.25
69955;BME280;57279;55.912;37.490;2022-11-20T03:44:25;99414.75;;;-2.17;72.97
69955;BME280;57279;55.912;37.490;2022-11-20T03:46:50;99421.22;;;-2.20;72.90
69955;BME280;57279;55.912;37.490;2022-11-20T03:49:16;99423.81;;;-2.11;72.92
69955;BME280;57279;55.912;37.490;2022-11-20T03:51:41;99420.00;;;-2.09;72.74
69955;BME280;57279;55.912;37.490;2022-11-20T03:54:08;99425.28;;;-2.09;72.99
69955;BME280;57279;55.912;37.490;2022-11-20T03:56:37;99417.81;;;-2.05;72.97
69955;BME280;57279;55.912;37.490;2022-11-20T03:59:03;99426.69;;;-1.98;72.68
69955;BME280;57279;55.912;37.490;2022-11-20T04:01:33;99430.84;;;-2.04;72.36
69955;BME280;57279;55.912;37.490;2022-11-20T04:03:59;99433.63;;;-1.97;73.26
69955;BME280;57279;55.912;37.490;2022-11-20T04:06:30;99440.94;;;-1.99;72.75
69955;BME280;57279;55.912;37.490;2022-11-20T04:08:58;99436.63;;;-2.00;72.27
69955;BME280;57279;55.912;37.490;2022-11-20T04:11:27;99438.28;;;-1.99;72.90
69955;BME280;57279;55.912;37.490;2022-11-20T04:13:57;99436.38;;;-2.13;72.51
69955;BME280;57279;55.912;37.490;2022-11-20T04:16:24;99431.94;;;-2.13;72.80
69955;BME280;57279;55.912;37.490;2022-11-20T04:18:57;99436.38;;;-2.13;72.37
69955;BME280;57279;55.912;37.490;2022-11-20T04:21:25;99455.84;;;-2.06;72.55
69955;BME280;57279;55.912;37.490;2022-11-20T04:23:54;99451.34;;;-1.98;72.61
69955;BME280;57279;55.912;37.490;2022-11-20T04:26:20;99453.28;;;-1.91;71.78
69955;BME280;57279;55.912;37.490;2022-11-20T04:28:46;99458.75;;;-1.93;72.10
69955;BME280;57279;55.912;37.490;2022-11-20T04:31:17;99462.03;;;-1.91;71.61
69955;BME280;57279;55.912;37.490;2022-11-20T04:33:46;99468.38;;;-2.00;71.64
69955;BME280;57279;55.912;37.490;2022-11-20T04:36:28;99472.03;;;-2.01;71.63
69955;BME280;57279;55.912;37.490;2022-11-20T04:38:59;99466.38;;;-1.98;72.72
69955;BME280;57279;55.912;37.490;2022-11-20T04:41:27;99479.34;;;-2.03;72.21
69955;BME280;57279;55.912;37.490;2022-11-20T04:43:56;99479.66;;;-2.06;71.95
69955;BME280;57279;55.912;37.490;2022-11-20T04:46:26;99486.41;;;-2.04;72.67
69955;BME280;57279;55.912;37.490;2022-11-20T04:48:52;99489.03;;;-1.95;72.39
69955;BME280;57279;55.912;37.490;2022-11-20T04:51:18;99482.38;;;-1.91;71.94
69955;BME280;57279;55.912;37.490;2022-11-20T04:53:45;99490.44;;;-1.85;71.72
69955;BME280;57279;55.912;37.490;2022-11-20T04:56:12;99496.91;;;-1.87;71.52
69955;BME280;57279;55.912;37.490;2022-11-20T04:58:38;99491.16;;;-1.91;72.05
69955;BME280;57279;55.912;37.490;2022-11-20T05:03:35;99505.81;;;-1.80;71.93
69955;BME280;57279;55.912;37.490;2022-11-20T05:06:03;99503.97;;;-1.80;71.43
69955;BME280;57279;55.912;37.490;2022-11-20T05:08:30;99505.47;;;-1.77;71.60
69955;BME280;57279;55.912;37.490;2022-11-20T05:11:09;99503.81;;;-1.78;71.75
69955;BME280;57279;55.912;37.490;2022-11-20T05:13:35;99512.16;;;-1.89;71.82
69955;BME280;57279;55.912;37.490;2022-11-20T05:16:06;99504.34;;;-1.83;71.72
69955;BME280;57279;55.912;37.490;2022-11-20T05:18:34;99512.44;;;-1.84;71.68
69955;BME280;57279;55.912;37.490;2022-11-20T05:21:00;99508.44;;;-1.80;72.07
69955;BME280;57279;55.912;37.490;2022-11-20T05:23:29;99511.56;;;-1.77;71.47
69955;BME280;57279;55.912;37.490;2022-11-20T05:25:58;99511.69;;;-1.70;71.56
69955;BME280;57279;55.912;37.490;2022-11-20T05:28:25;99522.41;;;-1.63;71.70
69955;BME280;57279;55.912;37.490;2022-11-20T05:30:52;99521.94;;;-1.67;71.23
69955;BME280;57279;55.912;37.490;2022-11-20T05:33:18;99529.56;;;-1.72;71.61
69955;BME280;57279;55.912;37.490;2022-11-20T05:35:44;99526.09;;;-1.72;71.46
69955;BME280;57279;55.912;37.490;2022-11-20T05:38:10;99535.00;;;-1.65;71.64
69955;BME280;57279;55.912;37.490;2022-11-20T05:40:36;99531.81;;;-1.61;71.94
69955;BME280;57279;55.912;37.490;2022-11-20T05:43:02;99539.22;;;-1.56;71.41
69955;BME280;57279;55.912;37.490;2022-11-20T05:45:28;99538.94;;;-1.61;71.21
69955;BME280;57279;55.912;37.490;2022-11-20T05:47:58;99543.84;;;-1.58;71.29
69955;BME280;57279;55.912;37.490;2022-11-20T05:50:25;99540.44;;;-1.44;71.61
69955;BME280;57279;55.912;37.490;2022-11-20T05:52:50;99543.75;;;-1.42;71.91
69955;BME280;57279;55.912;37.490;2022-11-20T05:55:16;99544.38;;;-1.40;72.02
69955;BME280;57279;55.912;37.490;2022-11-20T05:57:42;99542.50;;;-1.31;71.17
69955;BME280;57279;55.912;37.490;2022-11-20T06:00:08;99546.63;;;-1.28;71.00
69955;BME280;57279;55.912;37.490;2022-11-20T06:02:35;99547.34;;;-1.34;71.95
69955;BME280;57279;55.912;37.490;2022-11-20T06:05:01;99558.28;;;-1.38;72.21
69955;BME280;57279;55.912;37.490;2022-11-20T06:07:28;99555.22;;;-1.49;71.61
69955;BME280;57279;55.912;37.490;2022-11-20T06:09:54;99559.69;;;-1.50;72.00
69955;BME280;57279;55.912;37.490;2022-11-20T06:12:20;99562.13;;;-1.63;71.53
69955;BME280;57279;55.912;37.490;2022-11-20T06:14:45;99573.41;;;-1.69;72.21
69955;BME280;57279;55.912;37.490;2022-11-20T06:17:11;99580.47;;;-1.62;71.98
69955;BME280;57279;55.912;37.490;2022-11-20T06:19:37;99576.06;;;-1.69;71.92
69955;BME280;57279;55.912;37.490;2022-11-20T06:22:03;99571.91;;;-1.72;72.03
69955;BME280;57279;55.912;37.490;2022-11-20T06:24:29;99577.88;;;-1.70;72.18
69955;BME280;57279;55.912;37.490;2022-11-20T06:26:55;99579.34;;;-1.67;71.92
69955;BME280;57279;55.912;37.490;2022-11-20T06:29:23;99589.53;;;-1.56;71.36
69955;BME280;57279;55.912;37.490;2022-11-20T06:31:48;99584.59;;;-1.59;71.22
69955;BME280;57279;55.912;37.490;2022-11-20T06:34:17;99584.41;;;-1.58;71.53
69955;BME280;57279;55.912;37.490;2022-11-20T06:36:46;99582.72;;;-1.50;72.01
69955;BME280;57279;55.912;37.490;2022-11-20T06:39:14;99592.78;;;-1.46;70.95
69955;BME280;57279;55.912;37.490;2022-11-20T06:41:41;99602.31;;;-1.36;71.15
69955;BME280;57279;55.912;37.490;2022-11-20T06:44:08;99601.50;;;-1.37;70.93
69955;BME280;57279;55.912;37.490;2022-11-20T06:46:37;99605.91;;;-1.29;70.79
69955;BME280;57279;55.912;37.490;2022-11-20T06:49:04;99598.38;;;-1.41;70.68
69955;BME280;57279;55.912;37.490;2022-11-20T06:51:32;99593.81;;;-1.55;71.17
69955;BME280;57279;55.912;37.490;2022-11-20T06:53:59;99600.25;;;-1.49;71.28
69955;BME280;57279;55.912;37.490;2022-11-20T06:56:27;99597.75;;;-1.51;71.34
69955;BME280;57279;55.912;37.490;2022-11-20T06:58:57;99599.53;;;-1.43;71.33
69955;BME280;57279;55.912;37.490;2022-11-20T07:01:28;99599.53;;;-1.43;70.71
69955;BME280;57279;55.912;37.490;2022-11-20T07:03:54;99601.66;;;-1.39;70.51
69955;BME280;57279;55.912;37.490;2022-11-20T07:06:24;99591.97;;;-1.23;70.75
69955;BME280;57279;55.912;37.490;2022-11-20T07:08:55;99592.78;;;-1.23;69.84
69955;BME280;57279;55.912;37.490;2022-11-20T07:11:32;99593.00;;;-1.32;70.33
69955;BME280;57279;55.912;37.490;2022-11-20T07:14:02;99594.53;;;-1.38;70.73
69955;BME280;57279;55.912;37.490;2022-11-20T07:16:40;99595.34;;;-1.38;70.54
69955;BME280;57279;55.912;37.490;2022-11-20T07:19:14;99592.66;;;-1.29;70.51
69955;BME280;57279;55.912;37.490;2022-11-20T07:21:51;99593.00;;;-1.32;70.11
69955;BME280;57279;55.912;37.490;2022-11-20T07:24:18;99594.94;;;-1.26;70.05
69955;BME280;57279;55.912;37.490;2022-11-20T07:26:49;99596.59;;;-1.25;69.80
69955;BME280;57279;55.912;37.490;2022-11-20T07:29:17;99593.50;;;-1.29;69.71
69955;BME280;57279;55.912;37.490;2022-11-20T07:31:43;99602.56;;;-1.23;69.71
69955;BME280;57279;55.912;37.490;2022-11-20T07:34:11;99607.78;;;-1.15;69.59
69955;BME280;57279;55.912;37.490;2022-11-20T07:36:40;99611.03;;;-1.05;69.66
69955;BME280;57279;55.912;37.490;2022-11-20T07:39:16;99613.78;;;-0.98;69.50
69955;BME280;57279;55.912;37.490;2022-11-20T07:41:43;99606.16;;;-1.01;69.85
69955;BME280;57279;55.912;37.490;2022-11-20T07:44:10;99602.72;;;-1.02;69.10
69955;BME280;57279;55.912;37.490;2022-11-20T07:46:37;99606.06;;;-1.08;69.54
69955;BME280;57279;55.912;37.490;2022-11-20T07:49:06;99607.31;;;-1.19;69.27
69955;BME280;57279;55.912;37.490;2022-11-20T07:51:33;99622.28;;;-1.03;69.14
69955;BME280;57279;55.912;37.490;2022-11-20T07:53:59;99624.56;;;-1.00;68.48
69955;BME280;57279;55.912;37.490;2022-11-20T07:56:24;99618.78;;;-1.03;68.99
69955;BME280;57279;55.912;37.490;2022-11-20T07:58:50;99621.13;;;-0.85;68.89
69955;BME280;57279;55.912;37.490;2022-11-20T08:01:16;99620.66;;;-0.89;68.40
69955;BME280;57279;55.912;37.490;2022-11-20T08:03:41;99625.66;;;-0.94;68.88
69955;BME280;57279;55.912;37.490;2022-11-20T08:06:07;99622.97;;;-1.09;68.62
69955;BME280;57279;55.912;37.490;2022-11-20T08:08:33;99619.97;;;-1.06;69.55
69955;BME280;57279;55.912;37.490;2022-11-20T08:10:59;99620.38;;;-0.94;68.86
69955;BME280;57279;55.912;37.490;2022-11-20T08:13:43;99623.78;;;-0.85;69.08
69955;BME280;57279;55.912;37.490;2022-11-20T08:16:28;99624.03;;;-0.80;69.35
69955;BME280;57279;55.912;37.490;2022-11-20T08:18:54;99624.00;;;-0.72;68.96
69955;BME280;57279;55.912;37.490;2022-11-20T08:21:19;99628.88;;;-0.61;68.61
69955;BME280;57279;55.912;37.490;2022-11-20T08:23:45;99628.59;;;-0.51;68.57
69955;BME280;57279;55.912;37.490;2022-11-20T08:26:11;99636.09;;;-0.54;67.86
69955;BME280;57279;55.912;37.490;2022-11-20T08:28:37;99630.56;;;-0.68;68.53
69955;BME280;57279;55.912;37.490;2022-11-20T08:31:03;99631.78;;;-0.55;68.38
69955;BME280;57279;55.912;37.490;2022-11-20T08:33:29;99640.50;;;-0.47;67.86
69955;BME280;57279;55.912;37.490;2022-11-20T08:36:02;99630.59;;;-0.53;67.79
69955;BME280;57279;55.912;37.490;2022-11-20T08:38:29;99631.44;;;-0.52;68.04
69955;BME280;57279;55.912;37.490;2022-11-20T08:41:00;99645.69;;;-0.53;67.52
69955;BME280;57279;55.912;37.490;2022-11-20T08:43:44;99655.59;;;-0.47;68.67
69955;BME280;57279;55.912;37.490;2022-11-20T08:46:10;99652.75;;;-0.46;68.51
69955;BME280;57279;55.912;37.490;2022-11-20T08:48:36;99651.06;;;-0.62;68.22
69955;BME280;57279;55.912;37.490;2022-11-20T08:51:02;99645.25;;;-0.57;68.32
69955;BME280;57279;55.912;37.490;2022-11-20T08:53:27;99651.56;;;-0.43;68.51
69955;BME280;57279;55.912;37.490;2022-11-20T08:55:53;99665.28;;;-0.40;68.11
69955;BME280;57279;55.912;37.490;2022-11-20T08:58:19;99666.75;;;-0.37;67.66
69955;BME280;57279;55.912;37.490;2022-11-20T09:00:45;99669.69;;;-0.32;67.55
69955;BME280;57279;55.912;37.490;2022-11-20T09:03:10;99673.00;;;-0.30;68.89
69955;BME280;57279;55.912;37.490;2022-11-20T09:05:38;99673.44;;;-0.26;67.55
69955;BME280;57279;55.912;37.490;2022-11-20T09:08:04;99682.06;;;-0.24;66.96
69955;BME280;57279;55.912;37.490;2022-11-20T09:10:30;99686.72;;;-0.26;67.44
69955;BME280;57279;55.912;37.490;2022-11-20T09:13:05;99697.16;;;-0.25;67.65
69955;BME280;57279;55.912;37.490;2022-11-20T09:15:31;99693.59;;;-0.17;67.51
69955;BME280;57279;55.912;37.490;2022-11-20T09:18:02;99693.94;;;-0.20;67.37
69955;BME280;57279;55.912;37.490;2022-11-20T09:20:29;99693.66;;;-0.25;67.39
69955;BME280;57279;55.912;37.490;2022-11-20T09:22:55;99698.31;;;-0.27;68.22
69955;BME280;57279;55.912;37.490;2022-11-20T09:25:21;99703.09;;;-0.23;67.47
69955;BME280;57279;55.912;37.490;2022-11-20T09:27:47;99717.47;;;-0.32;67.57
69955;BME280;57279;55.912;37.490;2022-11-20T09:30:14;99719.56;;;-0.27;67.06
69955;BME280;57279;55.912;37.490;2022-11-20T09:32:41;99729.00;;;-0.25;68.00
69955;BME280;57279;55.912;37.490;2022-11-20T09:35:07;99730.47;;;-0.22;66.88
69955;BME280;57279;55.912;37.490;2022-11-20T09:37:33;99722.41;;;-0.14;67.46
69955;BME280;57279;55.912;37.490;2022-11-20T09:39:59;99743.47;;;-0.12;67.85
69955;BME280;57279;55.912;37.490;2022-11-20T09:42:41;99734.94;;;-0.08;66.74
69955;BME280;57279;55.912;37.490;2022-11-20T09:50:55;99746.28;;;-0.14;67.44
69955;BME280;57279;55.912;37.490;2022-11-20T09:56:20;99745.13;;;-0.11;68.06
69955;BME280;57279;55.912;37.490;2022-11-20T09:58:49;99747.50;;;-0.16;67.87
69955;BME280;57279;55.912;37.490;2022-11-20T10:01:20;99744.09;;;-0.25;68.59
69955;BME280;57279;55.912;37.490;2022-11-20T10:04:18;99740.53;;;-0.17;68.35
69955;BME280;57279;55.912;37.490;2022-11-20T10:09:32;99746.69;;;-0.02;69.02
69955;BME280;57279;55.912;37.490;2022-11-20T10:12:19;99743.50;;;0.03;67.92
69955;BME280;57279;55.912;37.490;2022-11-20T10:14:55;99741.56;;;-0.04;68.27
69955;BME280;57279;55.912;37.490;2022-11-20T10:20:34;99758.41;;;-0.11;68.52
69955;BME280;57279;55.912;37.490;2022-11-20T10:26:03;99759.94;;;-0.17;69.00
69955;BME280;57279;55.912;37.490;2022-11-20T10:31:00;99750.19;;;-0.40;68.92
69955;BME280;57279;55.912;37.490;2022-11-20T10:33:32;99753.53;;;-0.23;69.67
69955;BME280;57279;55.912;37.490;2022-11-20T10:38:56;99759.13;;;-0.03;69.13
69955;BME280;57279;55.912;37.490;2022-11-20T10:41:31;99760.50;;;-0.07;69.30
69955;BME280;57279;55.912;37.490;2022-11-20T10:44:22;99763.56;;;-0.33;69.98
69955;BME280;57279;55.912;37.490;2022-11-20T10:47:15;99757.50;;;-0.42;70.80
69955;BME280;57279;55.912;37.490;2022-11-20T10:49:42;99752.44;;;-0.51;71.12
69955;BME280;57279;55.912;37.490;2022-11-20T10:52:16;99762.19;;;-0.29;71.75
69955;BME280;57279;55.912;37.490;2022-11-20T11:00:32;99767.22;;;-0.34;70.93
69955;BME280;57279;55.912;37.490;2022-11-20T11:02:57;99765.97;;;-0.46;71.99
69955;BME280;57279;55.912;37.490;2022-11-20T11:08:39;99774.91;;;-0.85;72.59
69955;BME280;57279;55.912;37.490;2022-11-20T11:11:30;99782.44;;;-0.97;73.32
69955;BME280;57279;55.912;37.490;2022-11-20T11:14:07;99783.72;;;-0.93;73.94
69955;BME280;57279;55.912;37.490;2022-11-20T11:16:34;99792.44;;;-0.84;73.77
69955;BME280;57279;55.912;37.490;2022-11-20T11:19:10;99792.41;;;-0.76;73.52
69955;BME280;57279;55.912;37.490;2022-11-20T11:21:37;99788.72;;;-0.98;73.66
69955;BME280;57279;55.912;37.490;2022-11-20T11:24:20;99796.31;;;-0.95;73.94
69955;BME280;57279;55.912;37.490;2022-11-20T11:29:18;99795.47;;;-0.95;74.09
69955;BME280;57279;55.912;37.490;2022-11-20T11:31:44;99790.56;;;-1.07;74.14
69955;BME280;57279;55.912;37.490;2022-11-20T11:34:15;99796.41;;;-1.11;74.15
69955;BME280;57279;55.912;37.490;2022-11-20T11:36:42;99798.19;;;-1.35;74.51
69955;BME280;57279;55.912;37.490;2022-11-20T11:39:16;99794.00;;;-1.29;74.27
69955;BME280;57279;55.912;37.490;2022-11-20T11:41:42;99784.34;;;-1.22;74.07
69955;BME280;57279;55.912;37.490;2022-11-20T11:44:57;99798.78;;;-0.93;73.46
69955;BME280;57279;55.912;37.490;2022-11-20T11:47:36;99804.53;;;-1.13;72.89
69955;BME280;57279;55.912;37.490;2022-11-20T11:55:14;99798.50;;;-0.99;72.69
69955;BME280;57279;55.912;37.490;2022-11-20T11:57:49;99804.50;;;-1.05;71.78
69955;BME280;57279;55.912;37.490;2022-11-20T12:00:21;99797.19;;;-1.03;71.41
69955;BME280;57279;55.912;37.490;2022-11-20T12:07:49;99810.03;;;-1.23;70.95
69955;BME280;57279;55.912;37.490;2022-11-20T12:16:13;99803.88;;;-1.15;70.88
69955;BME280;57279;55.912;37.490;2022-11-20T12:18:40;99813.97;;;-1.19;70.80
69955;BME280;57279;55.912;37.490;2022-11-20T12:24:34;99824.00;;;-0.98;70.30
69955;BME280;57279;55.912;37.490;2022-11-20T12:30:07;99814.34;;;-1.22;70.29
69955;BME280;57279;55.912;37.490;2022-11-20T12:41:04;99806.66;;;-0.77;71.77
69955;BME280;57279;55.912;37.490;2022-11-20T12:55:56;99814.00;;;-0.87;70.14
69955;BME280;57279;55.912;37.490;2022-11-20T13:01:49;99819.53;;;-0.97;69.34
69955;BME280;57279;55.912;37.490;2022-11-20T13:07:02;99823.25;;;-0.83;69.39
69955;BME280;57279;55.912;37.490;2022-11-20T13:09:29;99834.56;;;-0.89;69.20
69955;BME280;57279;55.912;37.490;2022-11-20T13:12:06;99841.50;;;-0.88;69.74
69955;BME280;57279;55.912;37.490;2022-11-20T13:17:33;99843.94;;;-0.79;69.15
69955;BME280;57279;55.912;37.490;2022-11-20T13:20:02;99829.00;;;-0.71;69.49
69955;BME280;57279;55.912;37.490;2022-11-20T13:22:43;99839.06;;;-0.98;69.45
69955;BME280;57279;55.912;37.490;2022-11-20T13:25:10;99838.84;;;-0.88;70.14
69955;BME280;57279;55.912;37.490;2022-11-20T13:27:36;99834.78;;;-0.68;70.23
69955;BME280;57279;55.912;37.490;2022-11-20T13:30:15;99833.22;;;-0.85;69.35
69955;BME280;57279;55.912;37.490;2022-11-20T13:32:51;99833.69;;;-0.82;69.95
69955;BME280;57279;55.912;37.490;2022-11-20T13:35:29;99842.72;;;-0.68;70.78
69955;BME280;57279;55.912;37.490;2022-11-20T13:40:27;99850.69;;;-0.68;68.81
69955;BME280;57279;55.912;37.490;2022-11-20T13:45:30;99847.34;;;-1.01;69.05
69955;BME280;57279;55.912;37.490;2022-11-20T13:48:00;99855.03;;;-1.06;69.37
69955;BME280;57279;55.912;37.490;2022-11-20T13:50:58;99862.63;;;-1.03;69.46
69955;BME280;57279;55.912;37.490;2022-11-20T13:56:14;99863.31;;;-1.09;69.22
69955;BME280;57279;55.912;37.490;2022-11-20T13:58:53;99857.25;;;-1.26;69.44
69955;BME280;57279;55.912;37.490;2022-11-20T14:01:28;99854.94;;;-1.29;70.09
69955;BME280;57279;55.912;37.490;2022-11-20T14:03:55;99860.56;;;-1.32;69.81
69955;BME280;57279;55.912;37.490;2022-11-20T14:06:32;99862.03;;;-1.30;70.46
69955;BME280;57279;55.912;37.490;2022-11-20T14:08:59;99866.31;;;-1.21;69.99
69955;BME280;57279;55.912;37.490;2022-11-20T14:11:28;99867.94;;;-1.11;69.73
69955;BME280;57279;55.912;37.490;2022-11-20T14:14:15;99872.41;;;-1.04;69.79
69955;BME280;57279;55.912;37.490;2022-11-20T14:16:41;99872.28;;;-1.10;69.25
69955;BME280;57279;55.912;37.490;2022-11-20T14:19:29;99872.44;;;-1.20;69.99
69955;BME280;57279;55.912;37.490;2022-11-20T14:22:31;99875.69;;;-1.02;69.86
69955;BME280;57279;55.912;37.490;2022-11-20T14:27:36;99888.44;;;-0.97;69.13
69955;BME280;57279;55.912;37.490;2022-11-20T14:30:03;99883.38;;;-1.15;68.50
69955;BME280;57279;55.912;37.490;2022-11-20T14:32:30;99891.97;;;-1.13;68.29
69955;BME280;57279;55.912;37.490;2022-11-20T14:35:02;99899.91;;;-1.13;67.72
69955;BME280;57279;55.912;37.490;2022-11-20T14:37:35;99893.47;;;-1.19;67.32
69955;BME280;57279;55.912;37.490;2022-11-20T14:40:02;99905.63;;;-1.41;67.77
69955;BME280;57279;55.912;37.490;2022-11-20T14:42:28;99902.28;;;-1.26;68.11
69955;BME280;57279;55.912;37.490;2022-11-20T14:44:58;99902.25;;;-1.10;68.14
69955;BME280;57279;55.912;37.490;2022-11-20T14:47:27;99902.91;;;-1.08;67.38